^^
Station Historical Data
 
Daily Summary for October 17, 2019 Units:  English    Metric   Both
Next Day »
Daily Weekly Monthly Yearly Custom
  Current: High: Low: Average:
Temperature: 76.6 °F 76.6 °F 65.5 °F 70.7 °F
Dew Point: 46 °F 46.2 °F 39.6 °F 42.6 °F
Humidity: 34% 45% 27% 37%
Wind Speed: 4.6mph 7mph 0mph 1.2mph
Wind Gust: 2.4mph 7mph - -
WindEast - - East
Pressure: 29.7 in 29.7 in 29.7 in -
Precipitation: 0 in      
Historical Graphs
 
 
Tabular Data for October 17, 2019
Time Temperature Dew Point Pressure Wind Wind Speed Wind Gust Humidity Rainfall Rate (Hourly) solar Conditions
00:00 76.3 °F 39.7 °F 29.7 in East 1.2 mph 0.2 mph 27% 0 in 0.00 W/m2 CLR
00:05 76.1 °F 39.6 °F 29.7 in Calm   1 mph 27% 0 in 0.00 W/m2 CLR
00:10 75.7 °F 40.5 °F 29.7 in East 1.2 mph 0.4 mph 28% 0 in 0.00 W/m2 CLR
00:15 75.4 °F 39.9 °F 29.7 in Calm   2 mph 28% 0 in 0.00 W/m2 CLR
00:20 75 °F 40.6 °F 29.7 in Calm     29% 0 in 0.00 W/m2 CLR
00:25 74.8 °F 40.5 °F 29.7 in Calm   1 mph 29% 0 in 0.00 W/m2 CLR
00:30 74.5 °F 40.1 °F 29.7 in East 1.2 mph 0.2 mph 29% 0 in 0.00 W/m2 CLR
00:35 74.1 °F 39.9 °F 29.7 in Calm   1 mph 29% 0 in 0.00 W/m2 CLR
00:40 73.9 °F 40.5 °F 29.7 in Calm     30% 0 in 0.00 W/m2 CLR
00:45 73.8 °F 40.5 °F 29.7 in Calm   2 mph 30% 0 in 0.00 W/m2 CLR
00:50 73.6 °F 40.3 °F 29.7 in Calm     30% 0 in 0.00 W/m2 CLR
00:55 73.2 °F 40.8 °F 29.7 in Calm   1 mph 31% 0 in 0.00 W/m2 CLR
01:00 73 °F 40.6 °F 29.7 in East 1.2 mph   31% 0 in 0.00 W/m2 CLR
01:05 72.9 °F 40.5 °F 29.7 in Calm   1 mph 31% 0 in 0.00 W/m2 CLR
01:10 72.7 °F 40.3 °F 29.7 in East 1.2 mph   31% 0 in 0.00 W/m2 CLR
01:15 72.3 °F 40.8 °F 29.7 in Calm   1 mph 32% 0 in 0.00 W/m2 CLR
01:20 72.1 °F 40.6 °F 29.7 in East 1.2 mph 0.2 mph 32% 0 in 0.00 W/m2 CLR
01:25 72 °F 40.5 °F 29.7 in Calm   1 mph 32% 0 in 0.00 W/m2 CLR
01:30 71.6 °F 41 °F 29.7 in Calm     33% 0 in 0.00 W/m2 CLR
01:35 71.4 °F 40.8 °F 29.7 in Calm   1 mph 33% 0 in 0.00 W/m2 CLR
01:40 71.2 °F 40.6 °F 29.7 in East 1.2 mph 0.1 mph 33% 0 in 0.00 W/m2 CLR
01:45 71.1 °F 41.2 °F 29.7 in Calm   1 mph 34% 0 in 0.00 W/m2 CLR
01:50 70.7 °F 40.8 °F 29.7 in East 1.2 mph 0.1 mph 34% 0 in 0.00 W/m2 CLR
01:55 70.5 °F 40.8 °F 29.7 in Calm   1 mph 34% 0 in 0.00 W/m2 CLR
02:00 70.5 °F 40.8 °F 29.7 in Calm     34% 0 in 0.00 W/m2 CLR
02:05 70.3 °F 40.6 °F 29.7 in Calm     34% 0 in 0.00 W/m2 CLR
02:10 70.3 °F 41.4 °F 29.7 in Calm     35% 0 in 0.00 W/m2 CLR
02:15 70.3 °F 41.4 °F 29.7 in Calm     35% 0 in 0.00 W/m2 CLR
02:20 70.2 °F 41.2 °F 29.7 in Calm     35% 0 in 0.00 W/m2 CLR
02:25 69.8 °F 41.7 °F 29.7 in Calm   1 mph 36% 0 in 0.00 W/m2 CLR
02:30 69.4 °F 41.4 °F 29.7 in Calm     36% 0 in 0.00 W/m2 CLR
02:35 69.4 °F 41.4 °F 29.7 in Calm   1 mph 36% 0 in 0.00 W/m2 CLR
02:40 69.1 °F 41.7 °F 29.7 in East 1.2 mph 0.2 mph 37% 0 in 0.00 W/m2 CLR
02:45 69.1 °F 41.7 °F 29.7 in Calm   1 mph 37% 0 in 0.00 W/m2 CLR
02:50 69.3 °F 41.7 °F 29.7 in ESE 2.3 mph 0.6 mph 37% 0 in 0.00 W/m2 CLR
02:55 69.4 °F 42.1 °F 29.7 in Calm   3 mph 37% 0 in 0.00 W/m2 CLR
03:00 70 °F 42.4 °F 29.7 in SE 2.3 mph 0.8 mph 37% 0 in 0.00 W/m2 CLR
03:05 70.2 °F 42.6 °F 29.7 in ESE 1 mph 3 mph 37% 0 in 0.00 W/m2 CLR
03:10 70.3 °F 43 °F 29.7 in ENE 2.3 mph 1.4 mph 37% 0 in 0.00 W/m2 CLR
03:15 70.5 °F 43 °F 29.7 in ESE 1 mph 4 mph 37% 0 in 0.00 W/m2 CLR
03:20 70.9 °F 42.4 °F 29.7 in East 3.5 mph 1.6 mph 36% 0 in 0.00 W/m2 CLR
03:25 70.9 °F 42.6 °F 29.7 in East 1 mph 3 mph 36% 0 in 0.00 W/m2 CLR
03:30 71.1 °F 42.8 °F 29.7 in East 2.3 mph 0.8 mph 36% 0 in 0.00 W/m2 CLR
03:35 71.1 °F 42.8 °F 29.7 in East 1 mph 3 mph 36% 0 in 0.00 W/m2 CLR
03:40 71.1 °F 42.6 °F 29.7 in ESE 3.5 mph 1.6 mph 36% 0 in 0.00 W/m2 CLR
03:45 70.9 °F 42.6 °F 29.7 in East 1 mph 3 mph 36% 0 in 0.00 W/m2 CLR
03:50 70.9 °F 43.3 °F 29.7 in SE 5.8 mph 1.9 mph 37% 0 in 0.00 W/m2 CLR
03:55 71.1 °F 43.3 °F 29.7 in ESE 2 mph 5 mph 37% 0 in 0.00 W/m2 CLR
04:00 71.2 °F 43 °F 29.7 in SE 3.5 mph 2 mph 36% 0 in 0.00 W/m2 CLR
04:05 71.4 °F 43.2 °F 29.7 in East 1 mph 4 mph 36% 0 in 0.00 W/m2 CLR
04:10 71.6 °F 43.2 °F 29.7 in ESE 7 mph 1.8 mph 36% 0 in 0.00 W/m2 CLR
04:15 71.8 °F 43.3 °F 29.7 in ESE 1 mph 7 mph 36% 0 in 0.00 W/m2 CLR
04:20 71.8 °F 43.3 °F 29.7 in ESE 3.5 mph 0.8 mph 36% 0 in 0.00 W/m2 CLR
04:25 71.4 °F 43.2 °F 29.7 in ESE 1 mph 3 mph 36% 0 in 0.00 W/m2 CLR
04:30 71.2 °F 43 °F 29.7 in ENE 2.3 mph 0.9 mph 36% 0 in 0.00 W/m2 CLR
04:35 71.2 °F 43 °F 29.7 in East 1 mph 4 mph 36% 0 in 0.00 W/m2 CLR
04:40 71.2 °F 43 °F 29.7 in East 3.5 mph 1.1 mph 36% 0 in 0.00 W/m2 CLR
04:45 71.2 °F 43 °F 29.7 in East 1 mph 3 mph 36% 0 in 0.00 W/m2 CLR
04:50 71.2 °F 43 °F 29.7 in ESE 1.2 mph 0.4 mph 36% 0 in 0.00 W/m2 CLR
04:55 71.2 °F 42.8 °F 29.7 in East 1 mph 3 mph 36% 0 in 0.00 W/m2 CLR
05:00 71.1 °F 42.6 °F 29.7 in East 2.3 mph 0.2 mph 36% 0 in 0.00 W/m2 CLR
05:05 70.9 °F 43.2 °F 29.7 in Calm   2 mph 37% 0 in 0.00 W/m2 CLR
05:10 70.3 °F 43 °F 29.7 in East 2.3 mph 1 mph 37% 0 in 0.00 W/m2 CLR
05:15 70.2 °F 43.3 °F 29.7 in East 1 mph 2 mph 38% 0 in 0.00 W/m2 CLR
05:20 70 °F 43.2 °F 29.7 in ESE 1.2 mph 0.4 mph 38% 0 in 0.00 W/m2 CLR
05:25 70 °F 43.2 °F 29.7 in East 1 mph 3 mph 38% 0 in 0.00 W/m2 CLR
05:30 70 °F 43.2 °F 29.7 in East 2.3 mph 1.2 mph 38% 0 in 0.00 W/m2 CLR
05:35 69.8 °F 43 °F 29.7 in Calm   3 mph 38% 0 in 0.00 W/m2 CLR
05:40 69.8 °F 43 °F 29.7 in East 1.2 mph 0.2 mph 38% 0 in 0.00 W/m2 CLR
05:45 69.6 °F 43 °F 29.7 in Calm   1 mph 38% 0 in 0.00 W/m2 CLR
05:50 69.6 °F 43.5 °F 29.7 in East 1.2 mph 0.5 mph 39% 0 in 0.00 W/m2 CLR
05:55 69.4 °F 43.3 °F 29.7 in Calm   2 mph 39% 0 in 0.00 W/m2 CLR
06:00 69.3 °F 43.2 °F 29.7 in East 2.3 mph 0.9 mph 39% 0 in 0.00 W/m2 CLR
06:05 68.7 °F 43.3 °F 29.7 in ENE 1 mph 2 mph 40% 0 in 0.00 W/m2 CLR
06:10 67.8 °F 42.6 °F 29.7 in ENE 1.2 mph 0.4 mph 40% 0 in 0.00 W/m2 CLR
06:15 67.3 °F 42.8 °F 29.7 in Calm   2 mph 41% 0 in 0.00 W/m2 CLR
06:20 66.9 °F 43 °F 29.7 in NE 2.3 mph 1 mph 42% 0 in 0.00 W/m2 CLR
06:25 66.6 °F 42.6 °F 29.7 in Calm   2 mph 42% 0 in 0.00 W/m2 OVC
06:30 66 °F 43 °F 29.7 in NE 1.2 mph 0.2 mph 43% 0 in 7.00 W/m2 CLR
06:35 65.8 °F 42.8 °F 29.7 in NE 1.2 mph 0.6 mph 43% 0 in 11.00 W/m2 CLR
06:40 65.7 °F 43.2 °F 29.7 in NE 1.2 mph 0.1 mph 44% 0 in 16.00 W/m2 CLR
06:45 65.5 °F 43 °F 29.7 in Calm   1 mph 44% 0 in 21.00 W/m2 FEW
06:50 65.5 °F 43 °F 29.7 in Calm     44% 0 in 30.00 W/m2 FEW
06:55 65.5 °F 43.5 °F 29.7 in Calm     45% 0 in 40.00 W/m2 FEW
07:00 65.5 °F 43.5 °F 29.7 in Calm     45% 0 in 74.00 W/m2 CLR
07:05 65.5 °F 43.5 °F 29.7 in Calm   3 mph 45% 0 in 51.00 W/m2 SCT
07:10 66 °F 44.1 °F 29.7 in East 1.2 mph 0.3 mph 45% 0 in 111.00 W/m2 CLR
07:15 66.4 °F 44.4 °F 29.7 in Calm   1 mph 45% 0 in 83.00 W/m2 FEW
07:20 67.1 °F 44.4 °F 29.7 in East 2.3 mph 0.6 mph 44% 0 in 74.00 W/m2 SCT
07:25 67.6 °F 44.2 °F 29.7 in ENE 1 mph 3 mph 43% 0 in 165.00 W/m2 CLR
07:30 68.5 °F 44.4 °F 29.7 in East 2.3 mph 0.5 mph 42% 0 in 202.00 W/m2 CLR
07:35 69.4 °F 45.3 °F 29.7 in East 1 mph 3 mph 42% 0 in 174.00 W/m2 CLR
07:40 70.5 °F 45.7 °F 29.7 in East 3.5 mph 1 mph 41% 0 in 265.00 W/m2 CLR
07:45 71.2 °F 45.7 °F 29.7 in Calm   4 mph 40% 0 in 290.00 W/m2 CLR
07:50 72.1 °F 45.9 °F 29.7 in SE 4.6 mph 1.4 mph 39% 0 in 229.00 W/m2 CLR
07:55 72.7 °F 45.7 °F 29.7 in ESE 1 mph 3 mph 38% 0 in 174.00 W/m2 SCT
08:00 73 °F 45.3 °F 29.7 in ESE 3.5 mph 1.7 mph 37% 0 in 142.00 W/m2 SCT
08:05 73.4 °F 46.2 °F 29.7 in ESE 1 mph 4 mph 38% 0 in 334.00 W/m2 CLR
08:10 73.9 °F 46 °F 29.7 in SSE 3.5 mph 1.6 mph 37% 0 in 345.00 W/m2 CLR
08:15 74.7 °F 45.9 °F 29.7 in East 1 mph 4 mph 36% 0 in 362.00 W/m2 CLR
08:20 75.4 °F 45.9 °F 29.7 in East 3.5 mph 1.8 mph 35% 0 in 380.00 W/m2 CLR
08:25 75.9 °F 46.2 °F 29.7 in East 3 mph 7 mph 35% 0 in 396.00 W/m2 CLR
08:30 76.6 °F 46 °F 29.7 in East 4.6 mph 2.4 mph 34% 0 in 411.00 W/m2 CLR
Countryside Manor, Tucson, AZ, USA